sensor_id;sensor_type;location;lat;lon;timestamp;P1;durP1;ratioP1;P2;durP2;ratioP2
34832;SDS011;55941;50.800;4.342;2022-07-05T00:01:02;4.80;;;1.73;;
34832;SDS011;55941;50.800;4.342;2022-07-05T00:03:28;7.97;;;2.30;;
34832;SDS011;55941;50.800;4.342;2022-07-05T00:05:55;9.00;;;1.63;;
34832;SDS011;55941;50.800;4.342;2022-07-05T00:08:21;3.80;;;1.85;;
34832;SDS011;55941;50.800;4.342;2022-07-05T00:10:47;3.10;;;1.58;;
34832;SDS011;55941;50.800;4.342;2022-07-05T00:13:13;3.08;;;1.65;;
34832;SDS011;55941;50.800;4.342;2022-07-05T00:15:39;5.72;;;2.15;;
34832;SDS011;55941;50.800;4.342;2022-07-05T00:18:05;4.90;;;1.92;;
34832;SDS011;55941;50.800;4.342;2022-07-05T00:20:31;3.38;;;1.75;;
34832;SDS011;55941;50.800;4.342;2022-07-05T00:22:57;4.45;;;1.98;;
34832;SDS011;55941;50.800;4.342;2022-07-05T00:25:22;7.70;;;2.10;;
34832;SDS011;55941;50.800;4.342;2022-07-05T00:27:48;9.60;;;2.25;;
34832;SDS011;55941;50.800;4.342;2022-07-05T00:30:14;4.93;;;1.80;;
34832;SDS011;55941;50.800;4.342;2022-07-05T00:32:40;7.15;;;1.80;;
34832;SDS011;55941;50.800;4.342;2022-07-05T00:35:08;5.05;;;2.28;;
34832;SDS011;55941;50.800;4.342;2022-07-05T00:37:34;5.35;;;2.35;;
34832;SDS011;55941;50.800;4.342;2022-07-05T00:40:00;4.78;;;2.00;;
34832;SDS011;55941;50.800;4.342;2022-07-05T00:42:26;6.75;;;2.05;;
34832;SDS011;55941;50.800;4.342;2022-07-05T00:44:52;4.18;;;2.05;;
34832;SDS011;55941;50.800;4.342;2022-07-05T00:47:18;3.45;;;1.83;;
34832;SDS011;55941;50.800;4.342;2022-07-05T00:49:43;5.28;;;2.25;;
34832;SDS011;55941;50.800;4.342;2022-07-05T00:52:10;7.15;;;2.35;;
34832;SDS011;55941;50.800;4.342;2022-07-05T00:54:37;4.28;;;2.05;;
34832;SDS011;55941;50.800;4.342;2022-07-05T00:57:04;3.75;;;2.10;;
34832;SDS011;55941;50.800;4.342;2022-07-05T00:59:32;6.05;;;2.03;;
34832;SDS011;55941;50.800;4.342;2022-07-05T01:01:58;5.63;;;2.13;;
34832;SDS011;55941;50.800;4.342;2022-07-05T01:04:24;3.05;;;1.55;;
34832;SDS011;55941;50.800;4.342;2022-07-05T01:06:51;4.22;;;2.15;;
34832;SDS011;55941;50.800;4.342;2022-07-05T01:09:18;2.75;;;1.55;;
34832;SDS011;55941;50.800;4.342;2022-07-05T01:11:46;5.55;;;1.95;;
34832;SDS011;55941;50.800;4.342;2022-07-05T01:14:13;7.85;;;2.50;;
34832;SDS011;55941;50.800;4.342;2022-07-05T01:16:41;5.35;;;2.22;;
34832;SDS011;55941;50.800;4.342;2022-07-05T01:19:08;3.95;;;2.25;;
34832;SDS011;55941;50.800;4.342;2022-07-05T01:21:37;5.22;;;2.40;;
34832;SDS011;55941;50.800;4.342;2022-07-05T01:24:08;5.75;;;2.60;;
34832;SDS011;55941;50.800;4.342;2022-07-05T01:26:36;5.57;;;2.60;;
34832;SDS011;55941;50.800;4.342;2022-07-05T01:29:02;5.05;;;2.15;;
34832;SDS011;55941;50.800;4.342;2022-07-05T01:31:29;5.72;;;2.40;;
34832;SDS011;55941;50.800;4.342;2022-07-05T01:33:55;5.68;;;2.22;;
34832;SDS011;55941;50.800;4.342;2022-07-05T01:36:20;7.68;;;2.58;;
34832;SDS011;55941;50.800;4.342;2022-07-05T01:38:47;7.25;;;2.63;;
34832;SDS011;55941;50.800;4.342;2022-07-05T01:41:14;4.75;;;2.60;;
34832;SDS011;55941;50.800;4.342;2022-07-05T01:43:39;3.70;;;2.13;;
34832;SDS011;55941;50.800;4.342;2022-07-05T01:46:05;8.65;;;2.78;;
34832;SDS011;55941;50.800;4.342;2022-07-05T01:48:34;6.72;;;2.67;;
34832;SDS011;55941;50.800;4.342;2022-07-05T01:51:21;13.32;;;2.88;;
34832;SDS011;55941;50.800;4.342;2022-07-05T01:53:52;7.05;;;2.78;;
34832;SDS011;55941;50.800;4.342;2022-07-05T01:56:18;6.50;;;3.42;;
34832;SDS011;55941;50.800;4.342;2022-07-05T01:58:44;10.10;;;3.05;;
34832;SDS011;55941;50.800;4.342;2022-07-05T02:01:10;8.02;;;3.03;;
34832;SDS011;55941;50.800;4.342;2022-07-05T02:03:37;9.30;;;3.10;;
34832;SDS011;55941;50.800;4.342;2022-07-05T02:06:04;6.40;;;2.67;;
34832;SDS011;55941;50.800;4.342;2022-07-05T02:08:35;7.88;;;3.00;;
34832;SDS011;55941;50.800;4.342;2022-07-05T02:11:02;7.40;;;3.10;;
34832;SDS011;55941;50.800;4.342;2022-07-05T02:13:28;13.25;;;3.60;;
34832;SDS011;55941;50.800;4.342;2022-07-05T02:15:54;10.05;;;3.10;;
34832;SDS011;55941;50.800;4.342;2022-07-05T02:18:20;14.30;;;3.20;;
34832;SDS011;55941;50.800;4.342;2022-07-05T02:20:45;6.28;;;2.88;;
34832;SDS011;55941;50.800;4.342;2022-07-05T02:23:11;7.57;;;3.20;;
34832;SDS011;55941;50.800;4.342;2022-07-05T02:25:37;6.57;;;2.53;;
34832;SDS011;55941;50.800;4.342;2022-07-05T02:28:02;8.55;;;2.97;;
34832;SDS011;55941;50.800;4.342;2022-07-05T02:30:30;5.85;;;2.90;;
34832;SDS011;55941;50.800;4.342;2022-07-05T02:32:56;6.72;;;2.53;;
34832;SDS011;55941;50.800;4.342;2022-07-05T02:35:22;7.00;;;2.60;;
34832;SDS011;55941;50.800;4.342;2022-07-05T02:37:47;5.45;;;2.55;;
34832;SDS011;55941;50.800;4.342;2022-07-05T02:40:13;6.68;;;2.72;;
34832;SDS011;55941;50.800;4.342;2022-07-05T02:42:39;9.07;;;2.60;;
34832;SDS011;55941;50.800;4.342;2022-07-05T02:45:06;6.93;;;3.13;;
34832;SDS011;55941;50.800;4.342;2022-07-05T02:47:32;7.10;;;2.65;;
34832;SDS011;55941;50.800;4.342;2022-07-05T02:50:02;5.70;;;2.90;;
34832;SDS011;55941;50.800;4.342;2022-07-05T02:52:37;9.00;;;3.08;;
34832;SDS011;55941;50.800;4.342;2022-07-05T02:55:04;5.30;;;2.78;;
34832;SDS011;55941;50.800;4.342;2022-07-05T02:57:30;7.05;;;3.42;;
34832;SDS011;55941;50.800;4.342;2022-07-05T02:59:56;7.63;;;3.10;;
34832;SDS011;55941;50.800;4.342;2022-07-05T03:02:22;11.18;;;3.28;;
34832;SDS011;55941;50.800;4.342;2022-07-05T03:04:48;7.88;;;3.40;;
34832;SDS011;55941;50.800;4.342;2022-07-05T03:07:14;5.50;;;3.13;;
34832;SDS011;55941;50.800;4.342;2022-07-05T03:09:40;8.77;;;3.28;;
34832;SDS011;55941;50.800;4.342;2022-07-05T03:12:07;11.00;;;3.70;;
34832;SDS011;55941;50.800;4.342;2022-07-05T03:14:33;6.93;;;3.15;;
34832;SDS011;55941;50.800;4.342;2022-07-05T03:16:59;5.43;;;2.90;;
34832;SDS011;55941;50.800;4.342;2022-07-05T03:19:25;13.82;;;4.00;;
34832;SDS011;55941;50.800;4.342;2022-07-05T03:21:50;6.85;;;3.00;;
34832;SDS011;55941;50.800;4.342;2022-07-05T03:24:16;9.18;;;3.05;;
34832;SDS011;55941;50.800;4.342;2022-07-05T03:26:42;5.97;;;3.17;;
34832;SDS011;55941;50.800;4.342;2022-07-05T03:29:08;11.05;;;2.83;;
34832;SDS011;55941;50.800;4.342;2022-07-05T03:31:34;8.93;;;3.30;;
34832;SDS011;55941;50.800;4.342;2022-07-05T03:34:00;7.15;;;3.50;;
34832;SDS011;55941;50.800;4.342;2022-07-05T03:36:26;4.65;;;3.30;;
34832;SDS011;55941;50.800;4.342;2022-07-05T03:38:51;5.97;;;2.90;;
34832;SDS011;55941;50.800;4.342;2022-07-05T03:41:17;7.65;;;3.15;;
34832;SDS011;55941;50.800;4.342;2022-07-05T03:43:43;9.68;;;3.05;;
34832;SDS011;55941;50.800;4.342;2022-07-05T03:46:08;4.80;;;2.88;;
34832;SDS011;55941;50.800;4.342;2022-07-05T03:48:34;9.50;;;3.08;;
34832;SDS011;55941;50.800;4.342;2022-07-05T03:51:00;6.50;;;2.88;;
34832;SDS011;55941;50.800;4.342;2022-07-05T03:53:25;7.45;;;2.50;;
34832;SDS011;55941;50.800;4.342;2022-07-05T03:55:51;7.85;;;3.30;;
34832;SDS011;55941;50.800;4.342;2022-07-05T03:58:17;5.22;;;2.95;;
34832;SDS011;55941;50.800;4.342;2022-07-05T04:00:43;6.88;;;3.45;;
34832;SDS011;55941;50.800;4.342;2022-07-05T04:03:08;6.55;;;3.13;;
34832;SDS011;55941;50.800;4.342;2022-07-05T04:05:34;8.57;;;3.05;;
34832;SDS011;55941;50.800;4.342;2022-07-05T04:08:00;11.57;;;3.15;;
34832;SDS011;55941;50.800;4.342;2022-07-05T04:10:25;7.30;;;3.13;;
34832;SDS011;55941;50.800;4.342;2022-07-05T04:12:51;8.18;;;3.05;;
34832;SDS011;55941;50.800;4.342;2022-07-05T04:15:17;10.20;;;3.08;;
34832;SDS011;55941;50.800;4.342;2022-07-05T04:17:50;6.30;;;2.80;;
34832;SDS011;55941;50.800;4.342;2022-07-05T04:20:18;6.35;;;3.08;;
34832;SDS011;55941;50.800;4.342;2022-07-05T04:22:46;6.60;;;3.05;;
34832;SDS011;55941;50.800;4.342;2022-07-05T04:25:12;11.40;;;3.40;;
34832;SDS011;55941;50.800;4.342;2022-07-05T04:27:51;8.90;;;2.72;;
34832;SDS011;55941;50.800;4.342;2022-07-05T04:30:18;11.38;;;3.10;;
34832;SDS011;55941;50.800;4.342;2022-07-05T04:32:45;4.20;;;2.67;;
34832;SDS011;55941;50.800;4.342;2022-07-05T04:35:11;9.38;;;3.08;;
34832;SDS011;55941;50.800;4.342;2022-07-05T04:37:38;7.80;;;3.03;;
34832;SDS011;55941;50.800;4.342;2022-07-05T04:40:04;8.98;;;3.30;;
34832;SDS011;55941;50.800;4.342;2022-07-05T04:42:31;4.72;;;2.70;;
34832;SDS011;55941;50.800;4.342;2022-07-05T04:44:57;9.48;;;3.05;;
34832;SDS011;55941;50.800;4.342;2022-07-05T04:47:23;9.20;;;3.38;;
34832;SDS011;55941;50.800;4.342;2022-07-05T04:49:52;9.02;;;3.65;;
34832;SDS011;55941;50.800;4.342;2022-07-05T04:52:18;9.48;;;3.03;;
34832;SDS011;55941;50.800;4.342;2022-07-05T04:54:44;8.05;;;2.88;;
34832;SDS011;55941;50.800;4.342;2022-07-05T04:57:10;11.32;;;3.00;;
34832;SDS011;55941;50.800;4.342;2022-07-05T04:59:36;10.35;;;2.60;;
34832;SDS011;55941;50.800;4.342;2022-07-05T05:02:01;8.10;;;2.88;;
34832;SDS011;55941;50.800;4.342;2022-07-05T05:04:27;14.45;;;2.70;;
34832;SDS011;55941;50.800;4.342;2022-07-05T05:06:53;10.50;;;2.67;;
34832;SDS011;55941;50.800;4.342;2022-07-05T05:09:19;15.90;;;2.83;;
34832;SDS011;55941;50.800;4.342;2022-07-05T05:11:45;9.82;;;3.03;;
34832;SDS011;55941;50.800;4.342;2022-07-05T05:14:11;6.05;;;2.50;;
34832;SDS011;55941;50.800;4.342;2022-07-05T05:16:37;8.73;;;2.58;;
34832;SDS011;55941;50.800;4.342;2022-07-05T05:19:03;4.45;;;2.08;;
34832;SDS011;55941;50.800;4.342;2022-07-05T05:21:29;10.30;;;2.53;;
34832;SDS011;55941;50.800;4.342;2022-07-05T05:23:54;6.30;;;1.92;;
34832;SDS011;55941;50.800;4.342;2022-07-05T05:26:20;7.18;;;2.20;;
34832;SDS011;55941;50.800;4.342;2022-07-05T05:28:46;8.50;;;2.20;;
34832;SDS011;55941;50.800;4.342;2022-07-05T05:31:12;10.23;;;2.20;;
34832;SDS011;55941;50.800;4.342;2022-07-05T05:33:38;12.52;;;2.78;;
34832;SDS011;55941;50.800;4.342;2022-07-05T05:36:03;8.07;;;2.35;;
34832;SDS011;55941;50.800;4.342;2022-07-05T05:38:29;6.15;;;2.80;;
34832;SDS011;55941;50.800;4.342;2022-07-05T05:40:55;14.27;;;2.80;;
34832;SDS011;55941;50.800;4.342;2022-07-05T05:43:21;8.80;;;2.75;;
34832;SDS011;55941;50.800;4.342;2022-07-05T05:45:46;12.98;;;3.08;;
34832;SDS011;55941;50.800;4.342;2022-07-05T05:48:12;13.77;;;3.53;;
34832;SDS011;55941;50.800;4.342;2022-07-05T05:50:38;10.48;;;3.63;;
34832;SDS011;55941;50.800;4.342;2022-07-05T05:53:04;7.90;;;2.72;;
34832;SDS011;55941;50.800;4.342;2022-07-05T05:55:30;6.30;;;2.90;;
34832;SDS011;55941;50.800;4.342;2022-07-05T05:57:57;22.20;;;3.08;;
34832;SDS011;55941;50.800;4.342;2022-07-05T06:00:35;8.38;;;2.95;;
34832;SDS011;55941;50.800;4.342;2022-07-05T06:03:01;9.27;;;2.67;;
34832;SDS011;55941;50.800;4.342;2022-07-05T06:05:27;22.13;;;3.30;;
34832;SDS011;55941;50.800;4.342;2022-07-05T06:07:53;21.15;;;4.20;;
34832;SDS011;55941;50.800;4.342;2022-07-05T06:10:27;28.00;;;3.03;;
34832;SDS011;55941;50.800;4.342;2022-07-05T06:12:56;16.58;;;3.38;;
34832;SDS011;55941;50.800;4.342;2022-07-05T06:15:23;16.98;;;3.63;;
34832;SDS011;55941;50.800;4.342;2022-07-05T06:17:49;17.15;;;3.40;;
34832;SDS011;55941;50.800;4.342;2022-07-05T06:20:19;12.45;;;2.90;;
34832;SDS011;55941;50.800;4.342;2022-07-05T06:22:47;16.88;;;3.15;;
34832;SDS011;55941;50.800;4.342;2022-07-05T06:25:13;21.73;;;3.40;;
34832;SDS011;55941;50.800;4.342;2022-07-05T06:27:39;27.92;;;3.80;;
34832;SDS011;55941;50.800;4.342;2022-07-05T06:30:06;18.05;;;3.15;;
34832;SDS011;55941;50.800;4.342;2022-07-05T06:32:33;14.57;;;3.45;;
34832;SDS011;55941;50.800;4.342;2022-07-05T06:34:58;17.90;;;3.67;;
34832;SDS011;55941;50.800;4.342;2022-07-05T06:37:24;35.97;;;3.83;;
34832;SDS011;55941;50.800;4.342;2022-07-05T06:39:49;39.40;;;4.00;;
34832;SDS011;55941;50.800;4.342;2022-07-05T06:42:15;32.17;;;4.03;;
34832;SDS011;55941;50.800;4.342;2022-07-05T06:44:41;14.95;;;3.58;;
34832;SDS011;55941;50.800;4.342;2022-07-05T06:47:07;12.48;;;3.80;;
34832;SDS011;55941;50.800;4.342;2022-07-05T06:49:33;26.17;;;3.75;;
34832;SDS011;55941;50.800;4.342;2022-07-05T06:51:58;13.45;;;3.40;;
34832;SDS011;55941;50.800;4.342;2022-07-05T06:54:24;19.45;;;3.95;;
34832;SDS011;55941;50.800;4.342;2022-07-05T06:56:50;20.67;;;3.63;;
34832;SDS011;55941;50.800;4.342;2022-07-05T06:59:15;11.52;;;2.92;;
34832;SDS011;55941;50.800;4.342;2022-07-05T07:01:41;15.18;;;3.90;;
34832;SDS011;55941;50.800;4.342;2022-07-05T07:04:07;21.08;;;3.63;;
34832;SDS011;55941;50.800;4.342;2022-07-05T07:06:32;22.73;;;4.25;;
34832;SDS011;55941;50.800;4.342;2022-07-05T07:08:58;13.45;;;3.08;;
34832;SDS011;55941;50.800;4.342;2022-07-05T07:11:42;16.73;;;3.80;;
34832;SDS011;55941;50.800;4.342;2022-07-05T07:14:09;17.30;;;3.28;;
34832;SDS011;55941;50.800;4.342;2022-07-05T07:16:35;15.38;;;3.55;;
34832;SDS011;55941;50.800;4.342;2022-07-05T07:19:00;17.77;;;3.42;;
34832;SDS011;55941;50.800;4.342;2022-07-05T07:21:26;17.67;;;4.10;;
34832;SDS011;55941;50.800;4.342;2022-07-05T07:23:52;17.45;;;3.95;;
34832;SDS011;55941;50.800;4.342;2022-07-05T07:26:18;15.10;;;3.25;;
34832;SDS011;55941;50.800;4.342;2022-07-05T07:28:43;15.98;;;3.90;;
34832;SDS011;55941;50.800;4.342;2022-07-05T07:31:09;12.82;;;3.53;;
34832;SDS011;55941;50.800;4.342;2022-07-05T07:33:35;17.40;;;3.92;;
34832;SDS011;55941;50.800;4.342;2022-07-05T07:36:01;17.73;;;4.28;;
34832;SDS011;55941;50.800;4.342;2022-07-05T07:38:27;24.55;;;4.40;;
34832;SDS011;55941;50.800;4.342;2022-07-05T07:40:53;17.50;;;4.15;;
34832;SDS011;55941;50.800;4.342;2022-07-05T07:43:19;24.10;;;4.15;;
34832;SDS011;55941;50.800;4.342;2022-07-05T07:45:45;17.65;;;4.15;;
34832;SDS011;55941;50.800;4.342;2022-07-05T07:48:11;20.42;;;4.18;;
34832;SDS011;55941;50.800;4.342;2022-07-05T07:50:36;15.63;;;3.85;;
34832;SDS011;55941;50.800;4.342;2022-07-05T07:53:02;24.83;;;4.30;;
34832;SDS011;55941;50.800;4.342;2022-07-05T07:55:28;15.85;;;4.00;;
34832;SDS011;55941;50.800;4.342;2022-07-05T07:57:54;20.65;;;4.63;;
34832;SDS011;55941;50.800;4.342;2022-07-05T08:00:20;14.80;;;4.18;;
34832;SDS011;55941;50.800;4.342;2022-07-05T08:02:46;23.63;;;4.97;;
34832;SDS011;55941;50.800;4.342;2022-07-05T08:05:11;12.30;;;3.95;;
34832;SDS011;55941;50.800;4.342;2022-07-05T08:07:37;12.23;;;3.88;;
34832;SDS011;55941;50.800;4.342;2022-07-05T08:10:03;16.52;;;4.47;;
34832;SDS011;55941;50.800;4.342;2022-07-05T08:12:30;17.63;;;4.60;;
34832;SDS011;55941;50.800;4.342;2022-07-05T08:14:55;21.38;;;4.63;;
34832;SDS011;55941;50.800;4.342;2022-07-05T08:17:21;16.73;;;4.43;;
34832;SDS011;55941;50.800;4.342;2022-07-05T08:19:47;20.63;;;4.70;;
34832;SDS011;55941;50.800;4.342;2022-07-05T08:22:31;20.35;;;5.07;;
34832;SDS011;55941;50.800;4.342;2022-07-05T08:24:57;14.90;;;4.43;;
34832;SDS011;55941;50.800;4.342;2022-07-05T08:27:23;21.20;;;4.68;;
34832;SDS011;55941;50.800;4.342;2022-07-05T08:29:49;23.17;;;4.78;;
34832;SDS011;55941;50.800;4.342;2022-07-05T08:32:15;14.23;;;4.85;;
34832;SDS011;55941;50.800;4.342;2022-07-05T08:34:41;20.80;;;4.55;;
34832;SDS011;55941;50.800;4.342;2022-07-05T08:37:07;22.73;;;5.22;;
34832;SDS011;55941;50.800;4.342;2022-07-05T08:39:33;19.08;;;5.38;;
34832;SDS011;55941;50.800;4.342;2022-07-05T08:41:59;15.27;;;4.85;;
34832;SDS011;55941;50.800;4.342;2022-07-05T08:44:27;20.20;;;5.88;;
34832;SDS011;55941;50.800;4.342;2022-07-05T08:46:55;23.88;;;5.43;;
34832;SDS011;55941;50.800;4.342;2022-07-05T08:49:23;11.98;;;4.30;;
34832;SDS011;55941;50.800;4.342;2022-07-05T08:51:50;16.38;;;4.63;;
34832;SDS011;55941;50.800;4.342;2022-07-05T08:54:16;17.98;;;5.32;;
34832;SDS011;55941;50.800;4.342;2022-07-05T08:56:43;19.30;;;4.50;;
34832;SDS011;55941;50.800;4.342;2022-07-05T08:59:09;17.13;;;5.25;;
34832;SDS011;55941;50.800;4.342;2022-07-05T09:01:35;11.95;;;4.38;;
34832;SDS011;55941;50.800;4.342;2022-07-05T09:04:05;14.15;;;5.32;;
34832;SDS011;55941;50.800;4.342;2022-07-05T09:06:34;16.80;;;5.65;;
34832;SDS011;55941;50.800;4.342;2022-07-05T09:09:03;16.52;;;5.82;;
34832;SDS011;55941;50.800;4.342;2022-07-05T09:11:36;17.73;;;6.00;;
34832;SDS011;55941;50.800;4.342;2022-07-05T09:14:04;17.20;;;6.30;;
34832;SDS011;55941;50.800;4.342;2022-07-05T09:16:32;19.38;;;4.90;;
34832;SDS011;55941;50.800;4.342;2022-07-05T09:19:05;18.38;;;5.13;;
34832;SDS011;55941;50.800;4.342;2022-07-05T09:21:32;12.88;;;4.63;;
34832;SDS011;55941;50.800;4.342;2022-07-05T09:23:59;14.63;;;5.55;;
34832;SDS011;55941;50.800;4.342;2022-07-05T09:28:59;14.85;;;5.55;;
34832;SDS011;55941;50.800;4.342;2022-07-05T09:31:25;13.68;;;5.30;;
34832;SDS011;55941;50.800;4.342;2022-07-05T09:33:55;18.02;;;5.55;;
34832;SDS011;55941;50.800;4.342;2022-07-05T09:36:33;13.07;;;4.15;;
34832;SDS011;55941;50.800;4.342;2022-07-05T09:39:15;13.52;;;4.55;;
34832;SDS011;55941;50.800;4.342;2022-07-05T09:41:42;10.40;;;3.90;;
34832;SDS011;55941;50.800;4.342;2022-07-05T09:44:08;11.10;;;5.15;;
34832;SDS011;55941;50.800;4.342;2022-07-05T09:46:33;13.68;;;5.53;;
34832;SDS011;55941;50.800;4.342;2022-07-05T09:48:59;17.30;;;5.07;;
34832;SDS011;55941;50.800;4.342;2022-07-05T09:51:25;13.15;;;5.22;;
34832;SDS011;55941;50.800;4.342;2022-07-05T09:53:52;16.33;;;5.40;;
34832;SDS011;55941;50.800;4.342;2022-07-05T09:56:21;18.77;;;6.40;;
34832;SDS011;55941;50.800;4.342;2022-07-05T09:58:49;16.60;;;6.60;;
34832;SDS011;55941;50.800;4.342;2022-07-05T10:01:27;19.17;;;6.00;;
34832;SDS011;55941;50.800;4.342;2022-07-05T10:03:55;15.98;;;6.57;;
34832;SDS011;55941;50.800;4.342;2022-07-05T10:06:23;14.35;;;6.13;;
34832;SDS011;55941;50.800;4.342;2022-07-05T10:08:52;14.93;;;4.80;;
34832;SDS011;55941;50.800;4.342;2022-07-05T10:11:18;12.23;;;4.90;;
34832;SDS011;55941;50.800;4.342;2022-07-05T10:13:52;10.73;;;3.20;;
34832;SDS011;55941;50.800;4.342;2022-07-05T10:16:22;12.63;;;4.82;;
34832;SDS011;55941;50.800;4.342;2022-07-05T10:18:52;15.88;;;5.70;;
34832;SDS011;55941;50.800;4.342;2022-07-05T10:21:20;16.60;;;5.00;;
34832;SDS011;55941;50.800;4.342;2022-07-05T10:23:48;14.73;;;5.47;;
34832;SDS011;55941;50.800;4.342;2022-07-05T10:26:18;9.80;;;4.30;;
34832;SDS011;55941;50.800;4.342;2022-07-05T10:28:45;10.48;;;3.17;;
34832;SDS011;55941;50.800;4.342;2022-07-05T10:31:15;8.27;;;3.70;;
34832;SDS011;55941;50.800;4.342;2022-07-05T10:33:43;9.93;;;3.60;;
34832;SDS011;55941;50.800;4.342;2022-07-05T10:36:10;10.25;;;3.28;;
34832;SDS011;55941;50.800;4.342;2022-07-05T10:38:37;14.75;;;2.88;;
34832;SDS011;55941;50.800;4.342;2022-07-05T10:41:07;9.88;;;2.53;;
34832;SDS011;55941;50.800;4.342;2022-07-05T10:43:36;10.75;;;2.83;;
34832;SDS011;55941;50.800;4.342;2022-07-05T10:46:01;9.02;;;2.72;;
34832;SDS011;55941;50.800;4.342;2022-07-05T10:48:32;10.55;;;2.30;;
34832;SDS011;55941;50.800;4.342;2022-07-05T10:50:58;9.55;;;2.15;;
34832;SDS011;55941;50.800;4.342;2022-07-05T10:56:13;4.53;;;1.65;;
34832;SDS011;55941;50.800;4.342;2022-07-05T10:58:40;11.88;;;1.65;;
34832;SDS011;55941;50.800;4.342;2022-07-05T11:03:46;6.78;;;1.60;;
34832;SDS011;55941;50.800;4.342;2022-07-05T11:06:32;7.88;;;1.67;;
34832;SDS011;55941;50.800;4.342;2022-07-05T11:14:19;8.52;;;1.50;;
34832;SDS011;55941;50.800;4.342;2022-07-05T11:22:25;9.32;;;1.75;;
34832;SDS011;55941;50.800;4.342;2022-07-05T11:24:51;7.68;;;1.13;;
34832;SDS011;55941;50.800;4.342;2022-07-05T11:27:17;8.95;;;1.50;;
34832;SDS011;55941;50.800;4.342;2022-07-05T11:29:50;9.93;;;2.15;;
34832;SDS011;55941;50.800;4.342;2022-07-05T11:32:18;6.70;;;1.92;;
34832;SDS011;55941;50.800;4.342;2022-07-05T11:34:53;6.07;;;1.40;;
34832;SDS011;55941;50.800;4.342;2022-07-05T11:37:27;5.45;;;1.52;;
34832;SDS011;55941;50.800;4.342;2022-07-05T11:42:32;4.15;;;1.65;;
34832;SDS011;55941;50.800;4.342;2022-07-05T11:45:10;7.68;;;2.10;;
34832;SDS011;55941;50.800;4.342;2022-07-05T11:47:37;5.55;;;1.33;;
34832;SDS011;55941;50.800;4.342;2022-07-05T11:50:03;3.65;;;1.55;;
34832;SDS011;55941;50.800;4.342;2022-07-05T11:52:33;7.03;;;1.40;;
34832;SDS011;55941;50.800;4.342;2022-07-05T11:55:01;4.47;;;1.30;;
34832;SDS011;55941;50.800;4.342;2022-07-05T11:57:36;8.27;;;1.65;;
34832;SDS011;55941;50.800;4.342;2022-07-05T12:00:12;13.02;;;1.88;;
34832;SDS011;55941;50.800;4.342;2022-07-05T12:02:44;9.10;;;1.35;;
34832;SDS011;55941;50.800;4.342;2022-07-05T12:05:15;5.25;;;1.42;;
34832;SDS011;55941;50.800;4.342;2022-07-05T12:07:48;9.18;;;1.42;;
34832;SDS011;55941;50.800;4.342;2022-07-05T12:10:14;3.95;;;1.35;;
34832;SDS011;55941;50.800;4.342;2022-07-05T12:13:08;6.68;;;1.42;;
34832;SDS011;55941;50.800;4.342;2022-07-05T12:15:34;11.57;;;1.70;;
34832;SDS011;55941;50.800;4.342;2022-07-05T12:18:02;2.97;;;1.15;;
34832;SDS011;55941;50.800;4.342;2022-07-05T12:20:29;10.90;;;1.75;;
34832;SDS011;55941;50.800;4.342;2022-07-05T12:25:27;5.50;;;1.50;;
34832;SDS011;55941;50.800;4.342;2022-07-05T12:27:54;4.50;;;1.73;;
34832;SDS011;55941;50.800;4.342;2022-07-05T12:30:22;8.82;;;1.92;;
34832;SDS011;55941;50.800;4.342;2022-07-05T12:33:05;4.93;;;1.58;;
34832;SDS011;55941;50.800;4.342;2022-07-05T12:35:37;5.15;;;1.67;;
34832;SDS011;55941;50.800;4.342;2022-07-05T12:40:30;4.63;;;1.33;;
34832;SDS011;55941;50.800;4.342;2022-07-05T12:43:03;10.20;;;1.80;;
34832;SDS011;55941;50.800;4.342;2022-07-05T12:45:34;12.18;;;2.15;;
34832;SDS011;55941;50.800;4.342;2022-07-05T12:48:03;5.68;;;1.63;;
34832;SDS011;55941;50.800;4.342;2022-07-05T12:50:51;9.05;;;1.98;;
34832;SDS011;55941;50.800;4.342;2022-07-05T12:53:17;6.45;;;2.05;;
34832;SDS011;55941;50.800;4.342;2022-07-05T12:56:06;10.68;;;2.53;;
34832;SDS011;55941;50.800;4.342;2022-07-05T12:58:52;6.40;;;1.80;;
34832;SDS011;55941;50.800;4.342;2022-07-05T13:01:30;7.18;;;1.80;;
34832;SDS011;55941;50.800;4.342;2022-07-05T13:04:03;9.27;;;1.52;;
34832;SDS011;55941;50.800;4.342;2022-07-05T13:06:40;7.65;;;1.85;;
34832;SDS011;55941;50.800;4.342;2022-07-05T13:09:13;9.55;;;2.22;;
34832;SDS011;55941;50.800;4.342;2022-07-05T13:11:40;7.13;;;1.88;;
34832;SDS011;55941;50.800;4.342;2022-07-05T13:14:06;7.18;;;1.90;;
34832;SDS011;55941;50.800;4.342;2022-07-05T13:16:32;5.78;;;1.88;;
34832;SDS011;55941;50.800;4.342;2022-07-05T13:19:08;11.27;;;1.80;;
34832;SDS011;55941;50.800;4.342;2022-07-05T13:21:37;4.72;;;1.45;;
34832;SDS011;55941;50.800;4.342;2022-07-05T13:24:03;10.52;;;1.50;;
34832;SDS011;55941;50.800;4.342;2022-07-05T13:26:30;5.70;;;1.42;;
34832;SDS011;55941;50.800;4.342;2022-07-05T13:28:55;6.85;;;1.60;;
34832;SDS011;55941;50.800;4.342;2022-07-05T13:31:21;5.45;;;1.52;;
34832;SDS011;55941;50.800;4.342;2022-07-05T13:33:47;5.65;;;1.52;;
34832;SDS011;55941;50.800;4.342;2022-07-05T13:36:12;6.72;;;1.52;;
34832;SDS011;55941;50.800;4.342;2022-07-05T13:38:38;10.68;;;1.80;;
34832;SDS011;55941;50.800;4.342;2022-07-05T13:41:04;8.73;;;1.45;;
34832;SDS011;55941;50.800;4.342;2022-07-05T13:43:29;4.95;;;1.50;;
34832;SDS011;55941;50.800;4.342;2022-07-05T13:45:55;6.82;;;1.30;;
34832;SDS011;55941;50.800;4.342;2022-07-05T13:48:21;3.25;;;1.20;;
34832;SDS011;55941;50.800;4.342;2022-07-05T13:50:47;16.45;;;1.60;;
34832;SDS011;55941;50.800;4.342;2022-07-05T13:53:12;7.28;;;1.35;;
34832;SDS011;55941;50.800;4.342;2022-07-05T13:55:38;4.05;;;1.33;;
34832;SDS011;55941;50.800;4.342;2022-07-05T13:58:04;9.57;;;1.40;;
34832;SDS011;55941;50.800;4.342;2022-07-05T14:00:30;7.97;;;1.40;;
34832;SDS011;55941;50.800;4.342;2022-07-05T14:02:55;6.90;;;1.23;;
34832;SDS011;55941;50.800;4.342;2022-07-05T14:05:21;8.40;;;1.30;;
34832;SDS011;55941;50.800;4.342;2022-07-05T14:07:47;6.20;;;1.50;;
34832;SDS011;55941;50.800;4.342;2022-07-05T14:10:13;11.75;;;1.27;;
34832;SDS011;55941;50.800;4.342;2022-07-05T14:12:39;6.80;;;1.50;;
34832;SDS011;55941;50.800;4.342;2022-07-05T14:15:05;10.98;;;1.58;;
34832;SDS011;55941;50.800;4.342;2022-07-05T14:17:32;10.52;;;1.23;;
34832;SDS011;55941;50.800;4.342;2022-07-05T14:19:57;15.43;;;1.55;;
34832;SDS011;55941;50.800;4.342;2022-07-05T14:22:23;5.38;;;1.00;;
34832;SDS011;55941;50.800;4.342;2022-07-05T14:24:49;5.70;;;1.10;;
34832;SDS011;55941;50.800;4.342;2022-07-05T14:27:15;9.82;;;1.48;;
34832;SDS011;55941;50.800;4.342;2022-07-05T14:29:41;5.65;;;1.00;;
34832;SDS011;55941;50.800;4.342;2022-07-05T14:32:06;2.40;;;1.08;;
34832;SDS011;55941;50.800;4.342;2022-07-05T14:34:32;4.85;;;1.27;;
34832;SDS011;55941;50.800;4.342;2022-07-05T14:36:58;4.20;;;1.17;;
34832;SDS011;55941;50.800;4.342;2022-07-05T14:39:24;10.05;;;1.30;;
34832;SDS011;55941;50.800;4.342;2022-07-05T14:41:50;4.75;;;1.10;;
34832;SDS011;55941;50.800;4.342;2022-07-05T14:44:16;8.82;;;1.20;;
34832;SDS011;55941;50.800;4.342;2022-07-05T14:46:42;3.90;;;1.10;;
34832;SDS011;55941;50.800;4.342;2022-07-05T14:49:08;6.65;;;1.58;;
34832;SDS011;55941;50.800;4.342;2022-07-05T14:51:34;4.40;;;1.10;;
34832;SDS011;55941;50.800;4.342;2022-07-05T14:54:00;7.47;;;1.52;;
34832;SDS011;55941;50.800;4.342;2022-07-05T14:56:26;5.88;;;0.93;;
34832;SDS011;55941;50.800;4.342;2022-07-05T14:58:51;5.00;;;1.30;;
34832;SDS011;55941;50.800;4.342;2022-07-05T15:01:17;10.27;;;1.38;;
34832;SDS011;55941;50.800;4.342;2022-07-05T15:03:43;6.63;;;1.05;;
34832;SDS011;55941;50.800;4.342;2022-07-05T15:06:09;11.98;;;1.55;;
34832;SDS011;55941;50.800;4.342;2022-07-05T15:08:35;7.72;;;1.70;;
34832;SDS011;55941;50.800;4.342;2022-07-05T15:11:01;11.85;;;2.38;;